Time;durP1;ratioP1;P1;durP2;ratioP2;P2;SDS_P1;SDS_P2;PMS_P1;PMS_P2;Temp;Humidity;BMP_temperature;BMP_pressure;BME280_temperature;BME280_humidity;BME280_pressure;Samples;Min_cycle;Max_cycle;Signal;HPM_P1;HPM_P2
2021/12/05 00:18:09;;;;;;;2.85;1.35;;;;;;;;;;5023737;28;20041;-76
2021/12/05 00:23:43;;;;;;;3.35;1.65;;;;;;;;;;4986167;28;20047;-74
2021/12/05 00:26:13;;;;;;;2.63;1.73;;;;;;;;;;5006538;28;20030;-75
2021/12/05 00:31:38;;;;;;;5.07;1.33;;;;;;;;;;5024317;28;20026;-74
2021/12/05 00:56:55;;;;;;;3.05;1.33;;;;;;;;;;5024895;28;20391;-75
2021/12/05 01:18:02;;;;;;;4.05;1.58;;;;;;;;;;4982606;28;20529;-74
2021/12/05 01:20:36;;;;;;;3.03;1.50;;;;;;;;;;5022929;28;20021;-76
2021/12/05 01:23:09;;;;;;;2.30;1.27;;;;;;;;;;5006590;28;20037;-75
2021/12/05 01:28:21;;;;;;;3.42;1.35;;;;;;;;;;5023318;28;20098;-75
2021/12/05 01:30:55;;;;;;;3.03;1.40;;;;;;;;;;5006102;28;20168;-74
2021/12/05 01:36:08;;;;;;;2.03;1.23;;;;;;;;;;5024084;28;20075;-75
2021/12/05 01:59:57;;;;;;;4.60;1.25;;;;;;;;;;5002645;28;20038;-75
2021/12/05 02:08:08;;;;;;;;;;;;;;;;;;5023355;28;20648;-75
2021/12/05 02:42:29;;;;;;;2.45;1.30;;;;;;;;;;5022808;28;20450;-74
2021/12/05 02:44:56;;;;;;;2.50;1.42;;;;;;;;;;5021576;28;20425;-75
2021/12/05 02:47:25;;;;;;;4.68;1.63;;;;;;;;;;5004739;28;20046;-77
2021/12/05 02:49:54;;;;;;;2.55;1.30;;;;;;;;;;5022712;28;20497;-75
2021/12/05 02:52:26;;;;;;;3.22;1.75;;;;;;;;;;5022547;28;20802;-74
2021/12/05 02:54:57;;;;;;;1.85;1.05;;;;;;;;;;5024274;28;20035;-74
2021/12/05 02:57:50;;;;;;;2.95;1.65;;;;;;;;;;5022497;28;20121;-75
2021/12/05 03:00:20;;;;;;;3.40;1.77;;;;;;;;;;5022162;28;20142;-73
2021/12/05 03:02:48;;;;;;;1.63;0.88;;;;;;;;;;5021631;28;20025;-75
2021/12/05 03:05:18;;;;;;;2.85;1.33;;;;;;;;;;5020446;28;20048;-76
2021/12/05 03:07:47;;;;;;;2.83;1.55;;;;;;;;;;5021572;28;20025;-75
2021/12/05 03:10:16;;;;;;;4.45;1.73;;;;;;;;;;5004356;28;20040;-76
2021/12/05 03:12:43;;;;;;;2.42;1.35;;;;;;;;;;5021737;28;20078;-76
2021/12/05 03:15:15;;;;;;;2.13;1.13;;;;;;;;;;5022038;28;20021;-73
2021/12/05 03:17:42;;;;;;;3.10;1.55;;;;;;;;;;5022029;28;20030;-74
2021/12/05 03:20:11;;;;;;;1.77;0.90;;;;;;;;;;5004560;28;20534;-74
2021/12/05 03:22:37;;;;;;;2.83;1.48;;;;;;;;;;5025927;28;20089;-75
2021/12/05 03:25:04;;;;;;;2.17;1.30;;;;;;;;;;5008920;28;20033;-74
2021/12/05 03:27:30;;;;;;;4.88;1.50;;;;;;;;;;5025525;28;20041;-75
2021/12/05 03:29:55;;;;;;;2.63;1.58;;;;;;;;;;5026571;28;20025;-74
2021/12/05 03:32:22;;;;;;;2.97;1.60;;;;;;;;;;5026281;28;20105;-74
2021/12/05 03:34:48;;;;;;;2.50;1.42;;;;;;;;;;5026379;28;20034;-73
2021/12/05 03:37:14;;;;;;;3.17;1.48;;;;;;;;;;5025703;28;20122;-76
2021/12/05 03:39:39;;;;;;;4.90;1.42;;;;;;;;;;5025462;28;20026;-74
2021/12/05 03:42:07;;;;;;;1.80;1.15;;;;;;;;;;5026119;28;20017;-75
2021/12/05 03:44:35;;;;;;;4.10;2.00;;;;;;;;;;5025476;28;20045;-75
2021/12/05 03:47:01;;;;;;;3.25;1.50;;;;;;;;;;5007502;28;20038;-77
2021/12/05 03:49:28;;;;;;;5.20;1.25;;;;;;;;;;5025564;28;20038;-76
2021/12/05 03:52:01;;;;;;;2.25;1.33;;;;;;;;;;5026138;28;20021;-76
2021/12/05 03:54:27;;;;;;;5.15;1.60;;;;;;;;;;5026534;28;20129;-76
2021/12/05 03:56:53;;;;;;;4.15;1.60;;;;;;;;;;5025512;28;20034;-76
2021/12/05 03:59:19;;;;;;;2.45;1.40;;;;;;;;;;5007801;28;20038;-75
2021/12/05 04:01:46;;;;;;;2.65;1.50;;;;;;;;;;5026214;28;20129;-75
2021/12/05 04:04:12;;;;;;;3.78;1.65;;;;;;;;;;5007527;28;20293;-73
2021/12/05 04:06:38;;;;;;;3.10;1.55;;;;;;;;;;5026239;28;20025;-74
2021/12/05 04:09:08;;;;;;;1.98;1.35;;;;;;;;;;5025521;28;20533;-75
2021/12/05 04:11:38;;;;;;;3.00;1.60;;;;;;;;;;5025512;28;20030;-75
2021/12/05 04:14:08;;;;;;;3.15;1.60;;;;;;;;;;5025507;28;20053;-75
2021/12/05 04:16:35;;;;;;;3.05;1.65;;;;;;;;;;5007384;28;20120;-75
2021/12/05 04:19:02;;;;;;;2.20;1.45;;;;;;;;;;5025222;28;20080;-75
2021/12/05 04:21:29;;;;;;;3.17;1.95;;;;;;;;;;5025453;28;20084;-74
2021/12/05 04:23:56;;;;;;;1.90;1.20;;;;;;;;;;5007875;28;20057;-75
2021/12/05 04:26:22;;;;;;;2.53;1.45;;;;;;;;;;5024945;28;20039;-75
2021/12/05 04:28:48;;;;;;;3.20;1.42;;;;;;;;;;5023688;28;20500;-73
2021/12/05 04:31:14;;;;;;;3.70;1.52;;;;;;;;;;5007022;28;20065;-75
2021/12/05 04:33:40;;;;;;;2.90;1.38;;;;;;;;;;5026494;28;20018;-74
2021/12/05 04:36:07;;;;;;;3.97;1.70;;;;;;;;;;5024662;28;20851;-75
2021/12/05 04:38:33;;;;;;;3.70;1.60;;;;;;;;;;5024323;28;20030;-75
2021/12/05 04:40:59;;;;;;;3.63;1.85;;;;;;;;;;5006995;28;20041;-75
2021/12/05 04:43:25;;;;;;;2.70;1.80;;;;;;;;;;5025012;28;20079;-74
2021/12/05 04:45:50;;;;;;;2.72;1.42;;;;;;;;;;5024523;28;20120;-73
2021/12/05 04:48:16;;;;;;;2.45;1.30;;;;;;;;;;5024181;28;20046;-75
2021/12/05 04:50:44;;;;;;;3.75;1.73;;;;;;;;;;5025038;28;20052;-74
2021/12/05 04:53:09;;;;;;;2.35;1.38;;;;;;;;;;5007582;28;20053;-73
2021/12/05 04:55:35;;;;;;;2.95;1.42;;;;;;;;;;5008813;28;20026;-74
2021/12/05 04:58:04;;;;;;;2.78;1.40;;;;;;;;;;5006243;28;20065;-73
2021/12/05 05:00:41;;;;;;;4.25;1.42;;;;;;;;;;5008113;28;20079;-75
2021/12/05 05:03:08;;;;;;;3.15;1.60;;;;;;;;;;5022098;28;20049;-75
2021/12/05 05:05:40;;;;;;;3.60;1.58;;;;;;;;;;5006616;28;20041;-75
2021/12/05 05:08:06;;;;;;;3.55;1.65;;;;;;;;;;5024874;28;21545;-75
2021/12/05 05:10:33;;;;;;;2.95;1.63;;;;;;;;;;5026197;28;20030;-77
2021/12/05 05:12:58;;;;;;;2.67;1.65;;;;;;;;;;5023690;28;20069;-74
2021/12/05 05:15:27;;;;;;;3.17;1.85;;;;;;;;;;5024865;28;20033;-75
2021/12/05 05:17:54;;;;;;;3.40;1.30;;;;;;;;;;5023651;28;20474;-75
2021/12/05 05:21:10;;;;;;;2.38;1.40;;;;;;;;;;5024384;28;20033;-74
2021/12/05 05:39:16;;;;;;;3.03;1.50;;;;;;;;;;5021620;28;20072;-74
2021/12/05 05:44:31;;;;;;;2.70;1.40;;;;;;;;;;5025607;28;20026;-74
2021/12/05 05:47:02;;;;;;;5.97;1.50;;;;;;;;;;5023203;28;20042;-74
2021/12/05 05:52:07;;;;;;;2.65;1.63;;;;;;;;;;5025827;28;20045;-75
2021/12/05 05:54:33;;;;;;;1.48;0.98;;;;;;;;;;5007185;28;20090;-75
2021/12/05 05:57:09;;;;;;;3.90;1.25;;;;;;;;;;5022762;28;20030;-74
2021/12/05 05:59:50;;;;;;;2.55;1.67;;;;;;;;;;5024021;28;20049;-74
2021/12/05 06:04:41;;;;;;;2.22;1.40;;;;;;;;;;5024134;28;20029;-73
2021/12/05 06:07:08;;;;;;;2.15;1.40;;;;;;;;;;5005725;28;20025;-74
2021/12/05 06:09:33;;;;;;;3.08;1.23;;;;;;;;;;5022945;28;20119;-74
2021/12/05 06:11:59;;;;;;;2.28;1.40;;;;;;;;;;5023522;28;20021;-75
2021/12/05 06:14:26;;;;;;;3.20;1.63;;;;;;;;;;5025229;28;20103;-74
2021/12/05 06:16:52;;;;;;;3.60;1.85;;;;;;;;;;5023594;28;20014;-74
2021/12/05 06:19:17;;;;;;;3.08;1.67;;;;;;;;;;5022784;28;20080;-74
2021/12/05 06:21:42;;;;;;;4.78;2.13;;;;;;;;;;5023141;28;20026;-75
2021/12/05 06:24:08;;;;;;;4.45;1.92;;;;;;;;;;5005671;28;20021;-74
2021/12/05 06:26:35;;;;;;;6.07;2.28;;;;;;;;;;5023071;28;20065;-75
2021/12/05 06:47:42;;;;;;;;;;;;;;;;;;5022912;28;20595;-74
2021/12/05 06:50:10;;;;;;;2.28;1.38;;;;;;;;;;5022093;28;19913;-74
2021/12/05 06:52:36;;;;;;;3.90;1.58;;;;;;;;;;5005075;28;20026;-74
2021/12/05 06:55:02;;;;;;;6.88;1.85;;;;;;;;;;5021563;28;20014;-74
2021/12/05 06:57:28;;;;;;;5.07;1.90;;;;;;;;;;5022571;28;20029;-73
2021/12/05 06:59:54;;;;;;;3.20;1.75;;;;;;;;;;5022386;28;20040;-74
2021/12/05 07:02:20;;;;;;;3.83;1.90;;;;;;;;;;5022401;28;20022;-74
2021/12/05 07:05:18;;;;;;;2.90;1.73;;;;;;;;;;5023427;28;20125;-73
2021/12/05 07:07:44;;;;;;;3.30;1.77;;;;;;;;;;5021325;28;20105;-74
2021/12/05 07:10:14;;;;;;;3.78;1.90;;;;;;;;;;5004550;28;20045;-73
2021/12/05 07:15:43;;;;;;;;;;;;;;;;;;5022467;28;20080;-75
2021/12/05 07:40:37;;;;;;;3.58;1.98;;;;;;;;;;5020345;28;20068;-74
2021/12/05 07:42:34;;;;;;;4.70;2.25;;;;;;;;;;5007488;28;20048;-74
2021/12/05 07:45:02;;;;;;;2.55;1.55;;;;;;;;;;5020979;28;20045;-72
2021/12/05 07:47:31;;;;;;;4.13;1.60;;;;;;;;;;5001552;28;20101;-74
2021/12/05 07:49:59;;;;;;;2.40;1.50;;;;;;;;;;4982223;28;20053;-74
2021/12/05 07:52:28;;;;;;;3.53;1.77;;;;;;;;;;4985189;28;20030;-76
2021/12/05 07:55:09;;;;;;;3.10;1.50;;;;;;;;;;4992687;28;20470;-74
2021/12/05 07:57:50;;;;;;;2.83;1.77;;;;;;;;;;4985244;28;20103;-75
2021/12/05 08:00:41;;;;;;;4.82;1.60;;;;;;;;;;4985396;28;20014;-74
2021/12/05 08:16:51;;;;;;;3.67;1.80;;;;;;;;;;5006973;28;20052;-72
2021/12/05 08:19:18;;;;;;;3.60;2.03;;;;;;;;;;5007686;28;20019;-75
2021/12/05 08:21:45;;;;;;;4.32;1.98;;;;;;;;;;5002068;28;20041;-76
2021/12/05 08:24:10;;;;;;;3.83;1.80;;;;;;;;;;5012558;28;20058;-74
2021/12/05 08:26:36;;;;;;;3.45;2.08;;;;;;;;;;5006955;28;20092;-75
2021/12/05 08:29:11;;;;;;;3.08;2.00;;;;;;;;;;4989544;28;20094;-74
2021/12/05 08:32:02;;;;;;;5.60;1.63;;;;;;;;;;5007109;28;20370;-73
2021/12/05 08:43:20;;;;;;;3.50;1.80;;;;;;;;;;5010144;28;20037;-73
2021/12/05 10:09:25;;;;;;;4.05;1.27;;;;;;;;;;5024493;28;20044;-76
2021/12/05 10:15:15;;;;;;;3.42;1.85;;;;;;;;;;5024248;28;20064;-73
2021/12/05 10:26:02;;;;;;;2.20;1.30;;;;;;;;;;5026091;28;20068;-74
2021/12/05 10:37:22;;;;;;;2.80;1.63;;;;;;;;;;4993244;28;20042;-73
2021/12/05 10:40:18;;;;;;;2.20;1.20;;;;;;;;;;5022686;28;20018;-73
2021/12/05 10:42:47;;;;;;;1.98;0.98;;;;;;;;;;5007328;28;20022;-73
2021/12/05 10:45:21;;;;;;;1.85;1.00;;;;;;;;;;5015663;28;20062;-74
2021/12/05 10:47:53;;;;;;;1.10;0.70;;;;;;;;;;5018867;28;20117;-74
2021/12/05 10:50:40;;;;;;;2.13;0.90;;;;;;;;;;4996077;28;20049;-74
2021/12/05 10:53:22;;;;;;;3.35;1.50;;;;;;;;;;5023164;28;20077;-73
2021/12/05 10:56:12;;;;;;;10.10;4.85;;;;;;;;;;5027150;28;20038;-74
2021/12/05 10:58:48;;;;;;;6.88;3.58;;;;;;;;;;5007626;28;20062;-73
2021/12/05 11:01:17;;;;;;;3.13;1.90;;;;;;;;;;5007138;28;20152;-75
2021/12/05 11:03:44;;;;;;;2.33;1.40;;;;;;;;;;5023477;28;20075;-73
2021/12/05 11:06:26;;;;;;;1.02;0.57;;;;;;;;;;5019755;28;20037;-75
2021/12/05 11:09:12;;;;;;;2.30;1.05;;;;;;;;;;5013141;28;20085;-73
2021/12/05 11:11:39;;;;;;;2.08;1.25;;;;;;;;;;5019113;28;20049;-73
2021/12/05 11:14:12;;;;;;;1.42;0.70;;;;;;;;;;5018101;28;20093;-73
2021/12/05 11:17:09;;;;;;;1.20;1.10;;;;;;;;;;5013778;28;20025;-72
2021/12/05 11:19:49;;;;;;;3.03;1.33;;;;;;;;;;5016591;28;20033;-73
2021/12/05 11:22:24;;;;;;;3.90;2.63;;;;;;;;;;4998339;28;20029;-74
2021/12/05 11:25:03;;;;;;;2.35;1.73;;;;;;;;;;5005025;28;20365;-74
2021/12/05 11:27:33;;;;;;;2.25;1.38;;;;;;;;;;5018878;28;20278;-73
2021/12/05 11:30:00;;;;;;;1.55;1.17;;;;;;;;;;5019198;28;20019;-73
2021/12/05 11:32:43;;;;;;;3.97;1.40;;;;;;;;;;5002948;28;20030;-73
2021/12/05 11:35:17;;;;;;;1.02;0.85;;;;;;;;;;5004197;28;20652;-76
2021/12/05 11:37:52;;;;;;;1.85;1.15;;;;;;;;;;5023817;28;20090;-74
2021/12/05 11:40:17;;;;;;;1.65;1.20;;;;;;;;;;5023276;28;20108;-72
2021/12/05 11:43:00;;;;;;;0.73;0.68;;;;;;;;;;5026165;28;20485;-76
2021/12/05 11:45:27;;;;;;;0.70;0.60;;;;;;;;;;5023593;28;20022;-73
2021/12/05 11:47:53;;;;;;;3.92;2.28;;;;;;;;;;5024225;28;20046;-73
2021/12/05 11:50:29;;;;;;;2.42;1.20;;;;;;;;;;5010097;28;20018;-76
2021/12/05 11:52:54;;;;;;;1.85;1.20;;;;;;;;;;5009746;28;20080;-73
2021/12/05 11:55:23;;;;;;;2.53;1.20;;;;;;;;;;5010053;28;20402;-74
2021/12/05 11:57:49;;;;;;;0.90;0.85;;;;;;;;;;5022286;28;20052;-74
2021/12/05 12:00:18;;;;;;;1.95;1.00;;;;;;;;;;5008796;28;20025;-73
2021/12/05 12:02:46;;;;;;;0.85;0.68;;;;;;;;;;5008877;28;20032;-73
2021/12/05 12:05:26;;;;;;;0.40;0.40;;;;;;;;;;5026732;28;20018;-74
2021/12/05 12:08:07;;;;;;;1.05;0.70;;;;;;;;;;5026219;28;20454;-76
2021/12/05 12:10:38;;;;;;;1.60;0.75;;;;;;;;;;5025560;28;20021;-74
2021/12/05 12:13:10;;;;;;;3.70;2.03;;;;;;;;;;5025784;28;20120;-75
2021/12/05 12:15:37;;;;;;;2.42;1.15;;;;;;;;;;5008071;28;20059;-76
2021/12/05 12:18:17;;;;;;;2.40;1.48;;;;;;;;;;5025549;28;20447;-75
2021/12/05 12:20:46;;;;;;;1.85;0.90;;;;;;;;;;5008313;28;20026;-74
2021/12/05 12:23:15;;;;;;;4.05;0.70;;;;;;;;;;5007371;28;20029;-76
2021/12/05 12:25:44;;;;;;;2.10;1.10;;;;;;;;;;5022449;28;20026;-74
2021/12/05 12:28:10;;;;;;;1.05;0.82;;;;;;;;;;5008655;28;20084;-73
2021/12/05 12:30:39;;;;;;;2.25;1.30;;;;;;;;;;5021277;28;20018;-75
2021/12/05 12:33:36;;;;;;;3.30;2.00;;;;;;;;;;5019246;28;20026;-74
2021/12/05 12:36:03;;;;;;;4.97;2.78;;;;;;;;;;5012007;28;20035;-73
2021/12/05 12:38:28;;;;;;;2.90;0.90;;;;;;;;;;5015090;28;20022;-73
2021/12/05 12:41:16;;;;;;;1.88;1.05;;;;;;;;;;5017020;28;20022;-76
2021/12/05 12:43:53;;;;;;;1.35;0.90;;;;;;;;;;5013951;28;20374;-76
2021/12/05 12:46:26;;;;;;;1.70;0.88;;;;;;;;;;5015227;28;20373;-75
2021/12/05 12:48:54;;;;;;;;;;;;;;;;;;5026155;28;20018;-75
2021/12/05 12:51:34;;;;;;;0.73;0.55;;;;;;;;;;5027267;28;19921;-74
2021/12/05 12:54:07;;;;;;;0.93;0.70;;;;;;;;;;5031860;28;20389;-75
2021/12/05 12:56:33;;;;;;;0.57;0.50;;;;;;;;;;5014871;28;20022;-76
2021/12/05 12:59:05;;;;;;;1.25;0.73;;;;;;;;;;5022542;28;20076;-75
2021/12/05 13:12:45;;;;;;;2.72;1.50;;;;;;;;;;5023476;28;20034;-73
2021/12/05 13:15:16;;;;;;;2.08;1.33;;;;;;;;;;5005230;28;20107;-75
2021/12/05 13:17:46;;;;;;;2.65;1.63;;;;;;;;;;5005838;28;20051;-74
2021/12/05 13:20:15;;;;;;;2.22;1.15;;;;;;;;;;5014117;28;20028;-76
2021/12/05 13:23:02;;;;;;;1.98;0.98;;;;;;;;;;5016501;28;20165;-78
2021/12/05 13:25:29;;;;;;;1.48;0.88;;;;;;;;;;5005371;28;20021;-75
2021/12/05 13:27:57;;;;;;;1.33;0.80;;;;;;;;;;5023390;28;20057;-76
2021/12/05 13:30:34;;;;;;;1.85;0.70;;;;;;;;;;5023141;28;20049;-73
2021/12/05 13:33:24;;;;;;;0.43;0.40;;;;;;;;;;5023633;28;20037;-74
2021/12/05 13:35:55;;;;;;;0.60;0.60;;;;;;;;;;5023760;28;20057;-75
2021/12/05 13:38:41;;;;;;;1.23;0.70;;;;;;;;;;5015687;28;20171;-74
2021/12/05 13:41:17;;;;;;;1.30;0.45;;;;;;;;;;5026012;28;20034;-74
2021/12/05 13:43:58;;;;;;;4.80;0.70;;;;;;;;;;5013880;28;20054;-73
2021/12/05 13:46:39;;;;;;;1.38;0.88;;;;;;;;;;5023971;28;20065;-73
2021/12/05 13:49:30;;;;;;;1.27;0.98;;;;;;;;;;5029000;28;20024;-74
2021/12/05 13:52:36;;;;;;;1.38;0.90;;;;;;;;;;5030069;28;20025;-73
2021/12/05 13:55:39;;;;;;;0.60;0.50;;;;;;;;;;5028476;28;20030;-74
2021/12/05 13:58:38;;;;;;;1.17;0.80;;;;;;;;;;5030103;28;20041;-76
2021/12/05 14:01:29;;;;;;;1.20;0.73;;;;;;;;;;5018805;28;20026;-74
2021/12/05 14:04:26;;;;;;;0.70;0.60;;;;;;;;;;5018609;28;20116;-73
2021/12/05 14:07:02;;;;;;;1.48;0.90;;;;;;;;;;4998951;28;20044;-73
2021/12/05 14:09:36;;;;;;;1.70;1.00;;;;;;;;;;5036169;28;20031;-75
2021/12/05 14:12:30;;;;;;;0.68;0.60;;;;;;;;;;5012774;28;20028;-73
2021/12/05 14:15:23;;;;;;;1.35;0.60;;;;;;;;;;4991124;28;20021;-74
2021/12/05 14:17:51;;;;;;;1.65;1.05;;;;;;;;;;5014472;28;20048;-75
2021/12/05 14:20:25;;;;;;;3.15;0.80;;;;;;;;;;5010696;28;20018;-75
2021/12/05 14:22:52;;;;;;;0.75;0.55;;;;;;;;;;5026467;28;20013;-75
2021/12/05 14:25:21;;;;;;;3.63;0.93;;;;;;;;;;5034970;28;20025;-73
2021/12/05 14:27:50;;;;;;;2.42;1.10;;;;;;;;;;5030729;28;20508;-75
2021/12/05 14:30:19;;;;;;;1.20;0.77;;;;;;;;;;5039211;28;20108;-75
2021/12/05 14:32:47;;;;;;;0.80;0.65;;;;;;;;;;5026496;28;20075;-78
2021/12/05 14:35:17;;;;;;;0.60;0.55;;;;;;;;;;5035319;28;20056;-73
2021/12/05 14:37:46;;;;;;;1.42;0.90;;;;;;;;;;5032437;28;20093;-74
2021/12/05 14:40:18;;;;;;;0.98;0.80;;;;;;;;;;5029612;28;20120;-74
2021/12/05 14:42:48;;;;;;;0.63;0.52;;;;;;;;;;5024785;28;20045;-73
2021/12/05 14:45:17;;;;;;;1.70;0.77;;;;;;;;;;5030380;28;20029;-73
2021/12/05 14:47:44;;;;;;;1.63;0.90;;;;;;;;;;4999184;28;20391;-73
2021/12/05 14:50:22;;;;;;;2.05;0.90;;;;;;;;;;5012486;28;20022;-74
2021/12/05 14:52:50;;;;;;;1.75;1.20;;;;;;;;;;5002304;28;20026;-73
2021/12/05 14:55:19;;;;;;;2.50;1.33;;;;;;;;;;4996505;28;20034;-75
2021/12/05 14:57:48;;;;;;;5.20;1.50;;;;;;;;;;5012145;28;20045;-73
2021/12/05 15:00:14;;;;;;;2.70;1.50;;;;;;;;;;5008158;28;20026;-73
2021/12/05 15:02:40;;;;;;;6.22;1.33;;;;;;;;;;5020008;28;20470;-73
2021/12/05 15:05:12;;;;;;;4.03;2.00;;;;;;;;;;5009393;28;20024;-72
2021/12/05 15:07:38;;;;;;;2.45;1.40;;;;;;;;;;4999823;28;20061;-75
2021/12/05 15:10:07;;;;;;;2.55;1.10;;;;;;;;;;5017267;28;20036;-76
2021/12/05 15:12:34;;;;;;;7.15;3.03;;;;;;;;;;5005568;28;20032;-73
2021/12/05 15:15:06;;;;;;;5.07;2.00;;;;;;;;;;5017870;28;20223;-74
2021/12/05 15:17:35;;;;;;;3.53;2.30;;;;;;;;;;5010674;28;20026;-75
2021/12/05 15:20:11;;;;;;;2.95;1.48;;;;;;;;;;5020684;28;20034;-74
2021/12/05 15:22:37;;;;;;;1.67;1.20;;;;;;;;;;5023845;28;20029;-75
2021/12/05 15:25:16;;;;;;;3.47;1.52;;;;;;;;;;5011270;28;20036;-75
2021/12/05 15:27:43;;;;;;;4.03;1.63;;;;;;;;;;5016618;28;20028;-75
2021/12/05 15:30:19;;;;;;;2.80;1.58;;;;;;;;;;5007240;28;20026;-76
2021/12/05 15:32:49;;;;;;;1.33;0.77;;;;;;;;;;5023855;28;20022;-74
2021/12/05 15:35:17;;;;;;;4.30;2.63;;;;;;;;;;5025681;28;20427;-74
2021/12/05 15:37:52;;;;;;;7.38;4.32;;;;;;;;;;5019589;28;20025;-74
2021/12/05 15:40:19;;;;;;;8.40;3.97;;;;;;;;;;5010021;28;20671;-77
2021/12/05 15:42:44;;;;;;;4.22;2.50;;;;;;;;;;5012270;28;20030;-77
2021/12/05 15:45:12;;;;;;;2.72;1.80;;;;;;;;;;5002616;28;20113;-74
2021/12/05 15:47:39;;;;;;;6.15;3.13;;;;;;;;;;5018102;28;20041;-74
2021/12/05 15:50:09;;;;;;;1.63;0.68;;;;;;;;;;5008921;28;20014;-74
2021/12/05 15:52:38;;;;;;;2.45;1.38;;;;;;;;;;5026544;28;20030;-76
2021/12/05 15:55:12;;;;;;;5.82;2.60;;;;;;;;;;5003029;28;20030;-75
2021/12/05 15:57:39;;;;;;;;;;;;;;;;;;4998050;28;20056;-75
2021/12/05 16:00:18;;;;;;;4.22;2.67;;;;;;;;;;4991408;28;19940;-75
2021/12/05 16:02:47;;;;;;;2.60;1.70;;;;;;;;;;5005547;28;20382;-74
2021/12/05 16:05:22;;;;;;;6.07;3.72;;;;;;;;;;4986993;28;20018;-75
2021/12/05 16:07:49;;;;;;;3.55;2.58;;;;;;;;;;4989912;28;20101;-73
2021/12/05 16:10:23;;;;;;;4.93;3.05;;;;;;;;;;5018404;28;20022;-75
2021/12/05 16:12:52;;;;;;;4.07;2.60;;;;;;;;;;5011214;28;20386;-75
2021/12/05 16:15:19;;;;;;;4.65;2.50;;;;;;;;;;5023287;28;20077;-75
2021/12/05 16:17:57;;;;;;;7.90;2.00;;;;;;;;;;4998108;28;20025;-76
2021/12/05 16:20:43;;;;;;;3.28;1.85;;;;;;;;;;5016240;28;20031;-75
2021/12/05 16:23:22;;;;;;;3.80;2.33;;;;;;;;;;5018394;28;20021;-73
2021/12/05 16:26:04;;;;;;;3.33;2.25;;;;;;;;;;5001225;28;20014;-74
2021/12/05 16:28:35;;;;;;;3.88;2.13;;;;;;;;;;5013653;28;20026;-74
2021/12/05 16:31:08;;;;;;;3.15;1.27;;;;;;;;;;5023148;28;20074;-74
2021/12/05 16:33:34;;;;;;;3.00;1.30;;;;;;;;;;5013297;28;20651;-74
2021/12/05 16:36:02;;;;;;;3.10;1.90;;;;;;;;;;5012776;28;20022;-75
2021/12/05 16:38:44;;;;;;;2.80;1.60;;;;;;;;;;5013299;28;20022;-74
2021/12/05 16:41:12;;;;;;;3.10;1.55;;;;;;;;;;5008151;28;20022;-74
2021/12/05 16:43:52;;;;;;;6.05;1.80;;;;;;;;;;4995654;28;20039;-74
2021/12/05 16:46:31;;;;;;;6.15;2.40;;;;;;;;;;5013719;28;20057;-73
2021/12/05 16:49:00;;;;;;;7.25;3.15;;;;;;;;;;5031758;28;20081;-75
2021/12/05 16:51:36;;;;;;;2.80;2.03;;;;;;;;;;5027934;28;20086;-75
2021/12/05 16:54:33;;;;;;;7.45;2.55;;;;;;;;;;5014876;28;20025;-74
2021/12/05 16:57:08;;;;;;;10.27;3.28;;;;;;;;;;5032085;28;20230;-75
2021/12/05 16:59:37;;;;;;;3.35;2.15;;;;;;;;;;5028055;28;20021;-75
2021/12/05 17:02:20;;;;;;;3.90;1.80;;;;;;;;;;5012870;28;20026;-74
2021/12/05 17:05:14;;;;;;;6.63;3.07;;;;;;;;;;5007010;28;20022;-75
2021/12/05 17:07:43;;;;;;;7.18;2.78;;;;;;;;;;5025302;28;20111;-75
2021/12/05 17:10:21;;;;;;;3.80;1.75;;;;;;;;;;5023922;28;20041;-74
2021/12/05 17:12:51;;;;;;;2.67;1.77;;;;;;;;;;5029779;28;20036;-76
2021/12/05 17:15:21;;;;;;;2.53;1.35;;;;;;;;;;5028307;28;20025;-74
2021/12/05 17:17:48;;;;;;;4.93;2.30;;;;;;;;;;5024075;28;20022;-75
2021/12/05 17:20:26;;;;;;;4.22;2.00;;;;;;;;;;5008543;28;20505;-75
2021/12/05 17:22:57;;;;;;;3.72;1.45;;;;;;;;;;5006790;28;20113;-74
2021/12/05 17:25:36;;;;;;;3.33;1.63;;;;;;;;;;5027943;28;20072;-75
2021/12/05 17:28:05;;;;;;;2.00;1.30;;;;;;;;;;5021136;28;20018;-76
2021/12/05 17:30:31;;;;;;;2.65;1.50;;;;;;;;;;5028170;28;20053;-74
2021/12/05 17:32:57;;;;;;;2.35;1.55;;;;;;;;;;5010648;28;20018;-73
2021/12/05 17:35:28;;;;;;;2.50;1.38;;;;;;;;;;5032465;28;20033;-75
2021/12/05 17:37:54;;;;;;;2.22;0.95;;;;;;;;;;5014226;28;20033;-75
2021/12/05 17:40:20;;;;;;;2.53;1.02;;;;;;;;;;5032417;28;20109;-75
2021/12/05 17:42:46;;;;;;;3.25;1.08;;;;;;;;;;5024704;28;20037;-75
2021/12/05 17:45:14;;;;;;;2.83;1.20;;;;;;;;;;5031580;28;20508;-74
2021/12/05 17:47:40;;;;;;;2.10;1.15;;;;;;;;;;5030776;28;20053;-74
2021/12/05 17:50:10;;;;;;;3.45;1.48;;;;;;;;;;5006587;28;20014;-72
2021/12/05 17:52:35;;;;;;;1.58;0.82;;;;;;;;;;5030716;28;20040;-75
2021/12/05 17:55:15;;;;;;;1.80;1.15;;;;;;;;;;5014931;28;20030;-75
2021/12/05 17:57:51;;;;;;;0.70;0.60;;;;;;;;;;5035149;28;20032;-75
2021/12/05 18:00:34;;;;;;;1.83;0.90;;;;;;;;;;5031672;28;20081;-74
2021/12/05 18:03:02;;;;;;;1.23;0.90;;;;;;;;;;5006203;28;20029;-75
2021/12/05 18:05:34;;;;;;;1.40;0.90;;;;;;;;;;5033506;28;20025;-73
2021/12/05 18:08:05;;;;;;;0.95;0.70;;;;;;;;;;5032024;28;20029;-74
2021/12/05 18:10:35;;;;;;;1.05;0.60;;;;;;;;;;5037031;28;20014;-73
2021/12/05 18:13:03;;;;;;;1.17;0.73;;;;;;;;;;5028947;28;20026;-73
2021/12/05 18:15:35;;;;;;;0.85;0.68;;;;;;;;;;5030380;28;20046;-74
2021/12/05 18:18:01;;;;;;;1.80;1.05;;;;;;;;;;5023668;28;20030;-75
2021/12/05 18:20:31;;;;;;;3.65;0.75;;;;;;;;;;5006875;28;20437;-72
2021/12/05 18:23:00;;;;;;;1.38;0.88;;;;;;;;;;5023741;28;20022;-75
2021/12/05 18:25:27;;;;;;;1.27;0.90;;;;;;;;;;5004157;28;20033;-74
2021/12/05 18:27:54;;;;;;;1.02;0.57;;;;;;;;;;5023736;28;20056;-73
2021/12/05 18:30:22;;;;;;;2.30;0.75;;;;;;;;;;5023504;28;20114;-74
2021/12/05 18:32:48;;;;;;;1.40;0.90;;;;;;;;;;5022664;28;20028;-73
2021/12/05 18:35:14;;;;;;;3.60;0.85;;;;;;;;;;5023380;28;20057;-73
2021/12/05 18:37:41;;;;;;;1.52;0.77;;;;;;;;;;5023732;28;20029;-73
2021/12/05 18:40:08;;;;;;;1.15;0.85;;;;;;;;;;5023868;28;20060;-73
2021/12/05 18:42:33;;;;;;;1.33;0.77;;;;;;;;;;5005947;28;20026;-73
2021/12/05 18:45:02;;;;;;;1.88;0.63;;;;;;;;;;5033722;28;20024;-73
2021/12/05 18:47:28;;;;;;;1.38;0.80;;;;;;;;;;5027555;28;20109;-74
2021/12/05 18:49:55;;;;;;;4.05;1.10;;;;;;;;;;5024008;28;20061;-74
2021/12/05 18:52:22;;;;;;;1.63;0.80;;;;;;;;;;5022585;28;20034;-73
2021/12/05 18:54:48;;;;;;;2.42;0.93;;;;;;;;;;5035985;28;20079;-72
2021/12/05 18:57:16;;;;;;;1.70;0.80;;;;;;;;;;5024514;28;20113;-73
2021/12/05 18:59:56;;;;;;;1.35;0.73;;;;;;;;;;5029950;28;20327;-73
2021/12/05 19:05:10;;;;;;;2.20;1.30;;;;;;;;;;5023736;28;20117;-74
2021/12/05 19:07:48;;;;;;;1.42;1.10;;;;;;;;;;5023621;28;20036;-71
2021/12/05 19:12:58;;;;;;;1.95;0.60;;;;;;;;;;5009317;28;20040;-70
2021/12/05 19:15:23;;;;;;;2.80;0.90;;;;;;;;;;5022289;28;20033;-72
2021/12/05 19:17:52;;;;;;;2.08;0.88;;;;;;;;;;5023309;28;20041;-71
2021/12/05 19:20:21;;;;;;;1.13;0.80;;;;;;;;;;5005433;28;20061;-71
2021/12/05 19:22:47;;;;;;;1.70;1.00;;;;;;;;;;5017125;28;20370;-72
2021/12/05 19:25:27;;;;;;;3.28;0.88;;;;;;;;;;5001646;28;20064;-71
2021/12/05 19:27:54;;;;;;;1.42;0.80;;;;;;;;;;5005678;28;20030;-72
2021/12/05 19:30:28;;;;;;;2.15;0.90;;;;;;;;;;5023821;28;20033;-71
2021/12/05 19:32:54;;;;;;;1.75;1.05;;;;;;;;;;5023114;28;20072;-71
2021/12/05 19:35:20;;;;;;;1.65;1.15;;;;;;;;;;5005966;28;20398;-70
2021/12/05 19:37:46;;;;;;;1.80;1.05;;;;;;;;;;5006407;28;20029;-71
2021/12/05 19:40:14;;;;;;;2.78;1.10;;;;;;;;;;5023526;28;20031;-71
2021/12/05 19:42:42;;;;;;;1.58;0.80;;;;;;;;;;5022714;28;20045;-71
2021/12/05 19:45:09;;;;;;;4.10;0.93;;;;;;;;;;5023215;28;20055;-72
2021/12/05 19:47:36;;;;;;;0.73;0.70;;;;;;;;;;5024981;28;20041;-72
2021/12/05 19:50:06;;;;;;;2.65;0.90;;;;;;;;;;5005478;28;20033;-71
2021/12/05 19:52:31;;;;;;;1.27;0.80;;;;;;;;;;5022776;28;20090;-70
2021/12/05 19:54:57;;;;;;;2.67;1.23;;;;;;;;;;5026201;28;20025;-71
2021/12/05 19:57:26;;;;;;;3.92;1.20;;;;;;;;;;5023267;28;20467;-71
2021/12/05 19:59:52;;;;;;;3.83;0.93;;;;;;;;;;5004969;28;20306;-71
2021/12/05 20:02:17;;;;;;;1.05;0.95;;;;;;;;;;5023947;28;20026;-71
2021/12/05 20:04:45;;;;;;;1.58;0.93;;;;;;;;;;5026459;28;20037;-71
2021/12/05 20:07:10;;;;;;;1.30;1.00;;;;;;;;;;5026464;28;20030;-71
2021/12/05 20:09:36;;;;;;;0.77;0.70;;;;;;;;;;5026613;28;20025;-71
2021/12/05 20:12:02;;;;;;;0.60;0.60;;;;;;;;;;5008700;28;20036;-73
2021/12/05 20:14:28;;;;;;;2.85;0.95;;;;;;;;;;5026209;28;20021;-72
2021/12/05 20:16:54;;;;;;;1.10;0.90;;;;;;;;;;5025521;28;20052;-71
2021/12/05 20:19:20;;;;;;;1.42;0.70;;;;;;;;;;5025794;28;20087;-71
2021/12/05 20:21:49;;;;;;;0.82;0.80;;;;;;;;;;5026098;28;20042;-71
2021/12/05 20:24:18;;;;;;;0.80;0.63;;;;;;;;;;5025530;28;20064;-71
2021/12/05 20:26:44;;;;;;;1.17;0.70;;;;;;;;;;5004767;28;20033;-71
2021/12/05 20:29:10;;;;;;;2.30;1.15;;;;;;;;;;5025861;28;20025;-71
2021/12/05 20:31:37;;;;;;;2.15;0.88;;;;;;;;;;5026350;28;20030;-71
2021/12/05 20:34:03;;;;;;;1.45;0.88;;;;;;;;;;5026172;28;20386;-72
2021/12/05 20:36:29;;;;;;;0.88;0.70;;;;;;;;;;5025373;28;20486;-71
2021/12/05 20:38:57;;;;;;;1.75;0.98;;;;;;;;;;5025361;28;20029;-72
2021/12/05 20:41:23;;;;;;;2.63;0.98;;;;;;;;;;5026166;28;20034;-71
2021/12/05 20:43:50;;;;;;;1.20;0.88;;;;;;;;;;5025445;28;20022;-72
2021/12/05 20:46:16;;;;;;;1.50;0.85;;;;;;;;;;5024883;28;20025;-73
2021/12/05 20:48:42;;;;;;;2.45;1.08;;;;;;;;;;5024927;28;20045;-73